Time;durP1;ratioP1;P1;durP2;ratioP2;P2;SDS_P1;SDS_P2;PMS_P1;PMS_P2;Temp;Humidity;BMP_temperature;BMP_pressure;BME280_temperature;BME280_humidity;BME280_pressure;Samples;Min_cycle;Max_cycle;Signal;HPM_P1;HPM_P2
2023/03/02 11:51:32;;;;;;;35.15;20.10;;;;;;;8.66;57.24;96605.81;2083100;28;20570;-65
2023/03/02 11:52:40;;;;;;;44.25;20.52;;;;;;;10.05;54.28;96611.59;2078339;28;20229;-64
2023/03/02 11:54:12;;;;;;;41.80;22.00;;;;;;;10.52;52.13;96613.91;2078828;28;20682;-64
2023/03/02 11:55:21;;;;;;;38.72;18.38;;;;;;;11.32;51.02;96604.09;2075870;28;20207;-65
2023/03/02 11:56:24;;;;;;;39.13;20.40;;;;;;;11.86;49.10;96595.38;2078535;28;20243;-66
2023/03/02 11:57:36;;;;;;;36.30;20.10;;;;;;;11.10;49.57;96597.28;2081972;28;20210;-66
2023/03/02 11:59:03;;;;;;;43.50;20.45;;;;;;;9.61;51.34;96605.59;2079945;28;20213;-65
2023/03/02 12:00:32;;;;;;;33.40;19.83;;;;;;;9.92;52.22;96606.91;2073144;28;20197;-65
2023/03/02 12:01:36;;;;;;;54.33;19.90;;;;;;;10.14;50.20;96608.56;2076454;28;20224;-65
2023/03/02 12:02:38;;;;;;;36.75;19.92;;;;;;;9.73;52.03;96606.00;2080147;28;20223;-65
2023/03/02 12:03:41;;;;;;;46.60;21.33;;;;;;;9.66;51.95;96601.94;2078548;28;20232;-65
2023/03/02 12:04:42;;;;;;;35.55;19.75;;;;;;;10.19;51.51;96613.59;2078771;28;20652;-65
2023/03/02 12:05:57;;;;;;;40.17;21.08;;;;;;;8.88;53.24;96609.38;2079096;28;20287;-65
2023/03/02 12:07:02;;;;;;;42.38;19.10;;;;;;;8.54;54.69;96605.44;2078745;28;20211;-65
2023/03/02 12:08:13;;;;;;;38.35;20.92;;;;;;;8.62;54.38;96601.66;2079374;28;20663;-65
2023/03/02 12:09:21;;;;;;;38.08;21.38;;;;;;;7.83;55.81;96603.56;2080490;28;20236;-65
2023/03/02 12:10:42;;;;;;;42.35;20.58;;;;;;;7.58;57.53;96607.00;2077842;28;20208;-65
2023/03/02 12:11:45;;;;;;;42.97;21.05;;;;;;;8.09;56.79;96602.66;2076673;28;20225;-65
2023/03/02 12:13:01;;;;;;;53.28;20.38;;;;;;;8.00;55.96;96606.44;2081648;28;20197;-65
2023/03/02 12:14:26;;;;;;;39.40;20.27;;;;;;;7.81;57.20;96601.03;2081067;28;20307;-59
2023/03/02 12:15:45;;;;;;;38.03;21.63;;;;;;;8.33;55.73;96603.53;2083132;28;20236;-59
2023/03/02 12:16:47;;;;;;;42.22;21.30;;;;;;;7.97;56.42;96606.56;2077356;28;20742;-59
2023/03/02 12:17:48;;;;;;;41.03;20.65;;;;;;;7.39;57.31;96601.56;2078697;28;20332;-59
2023/03/02 12:18:51;;;;;;;35.50;18.70;;;;;;;8.32;55.46;96611.41;2078580;28;20196;-59
2023/03/02 12:20:06;;;;;;;41.72;21.35;;;;;;;8.49;55.70;96606.47;2081569;28;20695;-59
2023/03/02 12:21:20;;;;;;;47.25;18.77;;;;;;;8.12;56.03;96606.91;2077646;28;20193;-59
2023/03/02 12:22:27;;;;;;;35.90;20.17;;;;;;;7.71;57.17;96609.19;2076988;28;20223;-59
2023/03/02 12:23:31;;;;;;;41.13;20.50;;;;;;;7.77;57.39;96611.56;2077953;28;20252;-59
2023/03/02 12:24:36;;;;;;;35.35;19.80;;;;;;;7.62;57.40;96608.59;2079802;28;20208;-59
2023/03/02 12:25:48;;;;;;;49.20;19.52;;;;;;;7.72;57.32;96614.34;2081369;28;20192;-59
2023/03/02 12:27:08;;;;;;;38.15;19.70;;;;;;;8.10;56.30;96606.97;2077074;28;20264;-60
2023/03/02 12:28:32;;;;;;;44.25;20.58;;;;;;;7.57;57.53;96607.03;2078042;28;20752;-59
2023/03/02 12:29:41;;;;;;;38.78;20.83;;;;;;;7.75;57.52;96603.00;2073796;28;20237;-59
2023/03/02 12:30:42;;;;;;;45.55;20.48;;;;;;;8.92;55.63;96600.53;2078459;28;20665;-60
2023/03/02 12:31:53;;;;;;;35.20;20.23;;;;;;;8.94;54.01;96604.78;2078280;28;20672;-60
2023/03/02 12:33:18;;;;;;;36.25;19.02;;;;;;;9.06;53.91;96613.03;2077998;28;20201;-59
2023/03/02 12:34:33;;;;;;;36.00;19.13;;;;;;;9.78;52.21;96602.25;2079638;28;20242;-59
2023/03/02 12:35:36;;;;;;;41.90;21.17;;;;;;;8.16;55.53;96605.88;2078956;28;20196;-59
2023/03/02 12:36:42;;;;;;;42.55;22.40;;;;;;;8.79;55.19;96602.75;2078997;28;20225;-60
2023/03/02 12:37:59;;;;;;;49.13;20.73;;;;;;;8.48;55.60;96596.09;2075273;28;20202;-59
2023/03/02 12:39:33;;;;;;;45.47;23.13;;;;;;;8.76;55.15;96597.66;2080496;28;20684;-59
2023/03/02 12:40:42;;;;;;;38.88;19.90;;;;;;;8.89;54.84;96595.44;2081635;28;20207;-57
2023/03/02 12:42:14;;;;;;;41.75;20.88;;;;;;;8.95;54.77;96593.44;2079116;28;20376;-58
2023/03/02 12:43:27;;;;;;;37.42;19.77;;;;;;;9.52;53.61;96595.53;2076324;28;20203;-58
2023/03/02 12:44:38;;;;;;;37.67;21.13;;;;;;;9.40;53.80;96590.84;2079758;28;20197;-58
2023/03/02 12:46:26;;;;;;;38.38;20.25;;;;;;;9.84;52.38;96589.88;2079201;28;20834;-58
2023/03/02 12:47:29;;;;;;;42.33;21.25;;;;;;;9.54;53.06;96585.06;2079965;28;20217;-58
2023/03/02 12:48:43;;;;;;;42.40;23.73;;;;;;;9.90;52.26;96590.47;2078189;28;20208;-57
2023/03/02 12:49:57;;;;;;;37.05;19.77;;;;;;;10.16;51.25;96591.09;2079978;28;20207;-57
2023/03/02 12:51:02;;;;;;;39.80;21.13;;;;;;;10.26;51.14;96586.34;2075535;28;20228;-58
2023/03/02 12:52:33;;;;;;;40.95;20.75;;;;;;;10.25;51.07;96588.09;2080260;28;20212;-58
2023/03/02 12:53:36;;;;;;;40.40;20.38;;;;;;;9.81;52.26;96583.03;2077404;28;20189;-58
2023/03/02 12:54:37;;;;;;;44.35;21.25;;;;;;;10.07;52.24;96583.69;2079059;28;20200;-58
2023/03/02 12:55:39;;;;;;;38.15;19.23;;;;;;;9.79;52.52;96577.06;2072855;28;20229;-58
2023/03/02 12:56:41;;;;;;;46.38;22.27;;;;;;;9.36;52.83;96579.69;2073223;28;20785;-58
2023/03/02 12:57:55;;;;;;;36.80;19.13;;;;;;;8.56;54.68;96575.84;2077075;28;21016;-58
2023/03/02 12:58:57;;;;;;;39.40;21.38;;;;;;;8.66;54.93;96585.00;2079552;28;20220;-58
2023/03/02 13:00:02;;;;;;;40.28;21.83;;;;;;;8.49;55.01;96567.44;2079299;28;20192;-58
2023/03/02 13:01:04;;;;;;;39.65;20.92;;;;;;;7.98;57.04;96582.22;2073317;28;20736;-58
2023/03/02 13:02:22;;;;;;;40.95;21.83;;;;;;;7.82;57.14;96586.25;2076690;28;20247;-57
2023/03/02 13:03:26;;;;;;;37.90;21.83;;;;;;;7.84;57.35;96585.31;2071910;28;20605;-58
2023/03/02 13:04:28;;;;;;;47.53;21.92;;;;;;;8.42;56.11;96573.72;2068022;28;20297;-58
2023/03/02 13:05:32;;;;;;;38.85;21.73;;;;;;;8.66;55.75;96586.78;2068170;28;20834;-58
2023/03/02 13:06:38;;;;;;;47.20;22.88;;;;;;;8.50;55.72;96574.31;2068722;28;20338;-58
2023/03/02 13:07:50;;;;;;;41.08;23.23;;;;;;;8.71;54.99;96584.84;2071708;28;20689;-58
2023/03/02 13:08:57;;;;;;;42.22;21.17;;;;;;;8.80;55.35;96576.66;2071108;28;20202;-58
2023/03/02 13:09:58;;;;;;;48.30;21.90;;;;;;;8.74;54.90;96571.69;2071638;28;20214;-58
2023/03/02 13:11:01;;;;;;;53.58;27.02;;;;;;;8.80;55.21;96587.06;2073859;28;20197;-58
2023/03/02 13:12:02;;;;;;;45.65;24.85;;;;;;;9.01;54.59;96588.91;2074922;28;20231;-58
2023/03/02 13:13:17;;;;;;;48.17;24.60;;;;;;;9.28;54.02;96589.56;2074254;28;20201;-57
2023/03/02 13:14:26;;;;;;;40.35;22.17;;;;;;;9.64;53.32;96583.75;2072926;28;20205;-58
2023/03/02 13:15:27;;;;;;;37.90;22.30;;;;;;;9.91;52.77;96589.53;2074372;28;20289;-58
2023/03/02 13:16:31;;;;;;;41.08;22.02;;;;;;;10.51;52.50;96582.66;2070758;28;20309;-58
2023/03/02 13:17:34;;;;;;;32.35;19.27;;;;;;;11.19;51.48;96582.94;2073536;28;20208;-58
2023/03/02 13:18:38;;;;;;;35.78;20.40;;;;;;;10.99;50.63;96581.28;2076606;28;20660;-58
2023/03/02 13:19:39;;;;;;;40.05;20.55;;;;;;;10.23;51.15;96584.72;2072292;28;20249;-58
2023/03/02 13:20:41;;;;;;;41.83;21.88;;;;;;;10.12;51.99;96584.34;2069796;28;20195;-58
2023/03/02 13:21:42;;;;;;;40.58;22.35;;;;;;;10.20;51.40;96590.06;2068690;28;20241;-58
2023/03/02 13:22:44;;;;;;;41.45;24.55;;;;;;;10.29;51.94;96588.78;2068542;28;20315;-58
2023/03/02 13:23:49;;;;;;;42.15;22.10;;;;;;;10.56;50.79;96585.88;2070025;28;20220;-58
2023/03/02 13:24:56;;;;;;;38.88;21.98;;;;;;;9.85;52.00;96573.31;2075938;28;20189;-59
2023/03/02 13:26:01;;;;;;;37.25;19.23;;;;;;;10.98;50.59;96568.28;2070124;28;20250;-58
2023/03/02 13:27:05;;;;;;;40.17;20.50;;;;;;;10.69;50.62;96586.16;2072525;28;20198;-58
2023/03/02 13:28:26;;;;;;;38.42;20.25;;;;;;;10.62;51.06;96576.00;2072232;28;20250;-58
2023/03/02 13:29:30;;;;;;;35.47;21.33;;;;;;;10.30;51.30;96560.00;2072773;28;20712;-59
2023/03/02 13:30:34;;;;;;;43.17;20.92;;;;;;;10.63;50.80;96571.66;2073764;28;20230;-59
2023/03/02 13:31:35;;;;;;;34.08;19.58;;;;;;;10.78;51.15;96581.38;2069762;28;20676;-59
2023/03/02 13:32:42;;;;;;;46.53;21.98;;;;;;;10.55;50.84;96579.84;2072722;28;20281;-59
2023/03/02 13:33:46;;;;;;;40.05;20.90;;;;;;;10.78;50.68;96583.16;2070158;28;20203;-60
2023/03/02 13:34:56;;;;;;;44.95;20.58;;;;;;;11.21;49.72;96581.13;2071800;28;20781;-59
2023/03/02 13:35:58;;;;;;;32.55;19.70;;;;;;;11.33;49.63;96579.66;2072679;28;20329;-59
2023/03/02 13:36:59;;;;;;;41.92;20.88;;;;;;;11.00;50.24;96569.09;2074104;28;20229;-59
2023/03/02 13:38:04;;;;;;;40.63;19.63;;;;;;;11.82;49.61;96571.16;2072848;28;20206;-58
2023/03/02 13:39:18;;;;;;;34.70;20.95;;;;;;;12.56;47.93;96571.72;2071799;28;20681;-59
2023/03/02 13:40:26;;;;;;;33.67;21.23;;;;;;;12.97;46.85;96573.84;2074981;28;20630;-59
2023/03/02 13:41:29;;;;;;;36.28;20.30;;;;;;;13.31;45.82;96571.97;2070826;28;20243;-58
2023/03/02 13:42:37;;;;;;;39.95;22.33;;;;;;;12.41;47.22;96565.53;2072406;28;20640;-59
2023/03/02 13:43:39;;;;;;;45.53;22.05;;;;;;;12.50;46.61;96570.25;2071099;28;20205;-58
2023/03/02 13:44:40;;;;;;;38.50;19.33;;;;;;;11.94;47.69;96572.28;2075173;28;20265;-59
2023/03/02 13:45:56;;;;;;;37.67;20.00;;;;;;;10.71;49.32;96537.34;2071960;28;20204;-58
2023/03/02 13:46:59;;;;;;;39.25;21.27;;;;;;;11.10;49.87;96567.72;2073909;28;20224;-59
2023/03/02 13:48:14;;;;;;;39.92;21.55;;;;;;;11.22;49.53;96567.13;2075202;28;20208;-58
2023/03/02 13:49:25;;;;;;;42.13;23.05;;;;;;;11.58;48.88;96555.78;2069979;28;20201;-59
2023/03/02 13:50:30;;;;;;;39.55;22.98;;;;;;;11.20;49.56;96555.03;2071902;28;20204;-59
2023/03/02 13:51:35;;;;;;;44.45;21.15;;;;;;;10.99;49.53;96564.78;2068888;28;20225;-59
2023/03/02 13:52:37;;;;;;;43.05;22.05;;;;;;;11.15;49.63;96560.50;2074736;28;20195;-58
2023/03/02 13:53:44;;;;;;;45.50;20.73;;;;;;;11.42;49.08;96560.06;2074207;28;20265;-59
2023/03/02 13:54:46;;;;;;;39.05;21.15;;;;;;;11.52;48.58;96563.09;2072321;28;20194;-59
2023/03/02 13:55:48;;;;;;;36.42;21.70;;;;;;;11.73;48.52;96558.53;2074637;28;20197;-58
2023/03/02 13:56:52;;;;;;;41.97;21.23;;;;;;;12.24;47.76;96558.59;2068832;28;20228;-59
2023/03/02 13:57:55;;;;;;;36.25;21.52;;;;;;;12.05;48.25;96558.69;2070062;28;20201;-59
2023/03/02 13:58:56;;;;;;;39.47;23.08;;;;;;;11.47;48.67;96545.00;2074366;28;20210;-59
2023/03/02 13:59:58;;;;;;;43.03;23.73;;;;;;;11.16;49.32;96554.38;2071109;28;20214;-59
2023/03/02 14:01:00;;;;;;;42.70;21.75;;;;;;;11.22;49.47;96547.97;2071214;28;20203;-58
2023/03/02 14:02:10;;;;;;;44.13;23.05;;;;;;;11.73;48.85;96554.16;2069383;28;20207;-58
2023/03/02 14:03:21;;;;;;;44.97;21.30;;;;;;;11.36;49.14;96553.34;2070576;28;20255;-59
2023/03/02 14:04:23;;;;;;;35.92;21.02;;;;;;;10.80;50.00;96549.94;2072178;28;20199;-58
2023/03/02 14:05:31;;;;;;;39.88;20.35;;;;;;;10.42;51.02;96561.28;2072530;28;20207;-59
2023/03/02 14:06:33;;;;;;;33.40;20.95;;;;;;;10.23;51.54;96550.78;2072673;28;20260;-58
2023/03/02 14:07:35;;;;;;;35.00;19.52;;;;;;;10.68;50.98;96550.53;2072392;28;20214;-58
2023/03/02 14:08:36;;;;;;;44.78;23.30;;;;;;;10.76;50.66;96549.25;2069239;28;20195;-59
2023/03/02 14:09:38;;;;;;;45.00;20.75;;;;;;;10.92;50.53;96545.94;2074373;28;20282;-58
2023/03/02 14:10:41;;;;;;;37.33;21.13;;;;;;;10.92;50.36;96554.59;2074593;28;20213;-58
2023/03/02 14:11:45;;;;;;;34.75;20.85;;;;;;;10.93;50.33;96555.44;2074542;28;20312;-58
2023/03/02 14:12:54;;;;;;;45.03;21.65;;;;;;;10.16;51.41;96551.97;2074654;28;20586;-59
2023/03/02 14:13:56;;;;;;;56.42;22.77;;;;;;;10.21;51.32;96557.81;2071784;28;20641;-58
2023/03/02 14:15:00;;;;;;;38.67;20.95;;;;;;;10.72;50.49;96512.91;2072552;28;20205;-58
2023/03/02 14:16:02;;;;;;;43.58;21.42;;;;;;;11.19;49.61;96551.59;2071822;28;20202;-58
2023/03/02 14:17:13;;;;;;;41.97;21.98;;;;;;;11.43;49.58;96553.94;2073077;28;20766;-58
2023/03/02 14:18:36;;;;;;;34.63;19.48;;;;;;;10.51;50.78;96556.53;2073337;28;20701;-59
2023/03/02 14:19:37;;;;;;;35.90;19.95;;;;;;;10.59;50.67;96563.09;2074161;28;20193;-58
2023/03/02 14:20:39;;;;;;;40.38;21.48;;;;;;;11.04;50.50;96552.31;2073017;28;20245;-59
2023/03/02 14:21:42;;;;;;;49.13;21.52;;;;;;;11.00;50.54;96563.84;2070242;28;20237;-59
2023/03/02 14:22:44;;;;;;;39.17;19.05;;;;;;;10.86;50.60;96552.28;2068892;28;20269;-58
2023/03/02 14:23:46;;;;;;;41.88;22.58;;;;;;;10.54;51.19;96553.78;2073869;28;20209;-58
2023/03/02 14:24:48;;;;;;;34.10;22.02;;;;;;;10.35;51.85;96552.00;2076566;28;20228;-58
2023/03/02 14:25:50;;;;;;;41.50;20.42;;;;;;;10.36;51.80;96555.47;2075064;28;20199;-58
2023/03/02 14:26:52;;;;;;;47.10;20.73;;;;;;;10.26;52.24;96552.41;2069493;28;20221;-58
2023/03/02 14:27:53;;;;;;;40.75;20.30;;;;;;;10.58;51.54;96558.78;2073229;28;20333;-59
2023/03/02 14:28:55;;;;;;;42.05;21.60;;;;;;;10.73;51.39;96556.41;2072348;28;20202;-58
2023/03/02 14:30:26;;;;;;;41.25;22.45;;;;;;;10.97;50.57;96554.41;2070372;28;20202;-58
2023/03/02 14:31:28;;;;;;;39.15;20.88;;;;;;;10.69;50.80;96539.16;2069402;28;20221;-58
2023/03/02 14:32:30;;;;;;;31.98;19.98;;;;;;;10.55;50.70;96551.13;2071288;28;20254;-58
2023/03/02 14:33:31;;;;;;;35.90;18.98;;;;;;;10.18;51.79;96557.94;2067724;28;20198;-58
2023/03/02 14:34:33;;;;;;;38.85;21.50;;;;;;;10.13;52.21;96550.34;2068008;28;20195;-58
2023/03/02 14:35:37;;;;;;;39.55;20.90;;;;;;;10.44;51.38;96546.38;2073369;28;20220;-59
2023/03/02 14:36:40;;;;;;;40.85;20.95;;;;;;;10.39;51.61;96544.91;2071763;28;20267;-58
2023/03/02 14:37:45;;;;;;;33.33;18.38;;;;;;;10.31;52.10;96555.66;2075128;28;20197;-58
2023/03/02 14:38:47;;;;;;;36.25;20.33;;;;;;;10.27;51.72;96544.50;2074856;28;20251;-58
2023/03/02 14:39:50;;;;;;;35.38;19.70;;;;;;;10.50;51.56;96552.22;2068472;28;20214;-58
2023/03/02 14:40:55;;;;;;;38.97;21.38;;;;;;;10.61;51.43;96549.97;2075174;28;20198;-59
2023/03/02 14:41:56;;;;;;;38.92;21.00;;;;;;;10.30;51.41;96549.56;2071065;28;20217;-58
2023/03/02 14:42:58;;;;;;;41.72;20.85;;;;;;;10.28;51.85;96548.81;2072976;28;20206;-58
2023/03/02 14:44:00;;;;;;;41.05;20.42;;;;;;;10.52;51.32;96550.41;2074291;28;20197;-58
2023/03/02 14:45:01;;;;;;;35.50;19.55;;;;;;;10.52;51.78;96546.00;2072419;28;20237;-58
2023/03/02 14:46:03;;;;;;;31.10;18.88;;;;;;;10.15;52.05;96545.03;2072064;28;20545;-58
2023/03/02 14:47:04;;;;;;;37.88;21.70;;;;;;;10.34;52.30;96549.44;2073440;28;20193;-58
2023/03/02 14:48:05;;;;;;;38.15;20.63;;;;;;;10.45;51.08;96542.00;2071415;28;20202;-59
2023/03/02 14:49:07;;;;;;;40.88;21.67;;;;;;;10.72;51.46;96542.47;2071643;28;20276;-59
2023/03/02 14:50:10;;;;;;;37.67;22.70;;;;;;;11.05;50.59;96538.34;2073315;28;20202;-58
2023/03/02 14:51:22;;;;;;;37.72;21.70;;;;;;;11.14;49.96;96545.75;2069549;28;20270;-59
2023/03/02 14:52:41;;;;;;;36.05;20.67;;;;;;;11.33;49.41;96545.69;2072609;28;20210;-58
2023/03/02 14:53:42;;;;;;;38.90;20.17;;;;;;;11.06;49.76;96537.44;2073660;28;20204;-59
2023/03/02 14:54:52;;;;;;;34.33;20.48;;;;;;;11.80;49.01;96540.78;2072172;28;20635;-58
2023/03/02 14:55:54;;;;;;;37.28;20.65;;;;;;;12.06;48.47;96544.66;2065774;28;20208;-58
2023/03/02 14:56:55;;;;;;;33.85;19.60;;;;;;;11.88;48.06;96543.81;2069161;28;20229;-59
2023/03/02 14:58:14;;;;;;;36.55;20.35;;;;;;;11.74;48.38;96539.28;2070026;28;20204;-58
2023/03/02 14:59:15;;;;;;;36.28;19.70;;;;;;;11.66;48.64;96537.06;2069863;28;20239;-58
2023/03/02 15:00:17;;;;;;;36.72;21.70;;;;;;;11.56;49.02;96538.47;2067242;28;20653;-58
2023/03/02 15:01:20;;;;;;;40.92;19.58;;;;;;;11.90;48.56;96544.59;2066399;28;20203;-59
2023/03/02 15:02:22;;;;;;;37.58;20.63;;;;;;;11.58;48.98;96527.00;2071563;28;20206;-59
2023/03/02 15:03:28;;;;;;;37.05;21.63;;;;;;;11.40;49.23;96549.69;2071843;28;20219;-59
2023/03/02 15:04:29;;;;;;;42.78;21.27;;;;;;;11.19;49.72;96535.91;2074116;28;20286;-58
2023/03/02 15:05:30;;;;;;;38.05;20.33;;;;;;;11.61;49.39;96541.69;2071423;28;20642;-58
2023/03/02 15:06:37;;;;;;;37.97;21.00;;;;;;;12.13;48.04;96524.28;2069121;28;20562;-58
2023/03/02 15:07:39;;;;;;;37.97;20.60;;;;;;;12.26;48.07;96538.38;2069595;28;20242;-59
2023/03/02 15:08:41;;;;;;;41.80;19.55;;;;;;;12.39;47.74;96539.44;2081095;28;20200;-59
2023/03/02 15:09:43;;;;;;;36.70;20.05;;;;;;;12.86;47.18;96539.53;2078679;28;20225;-58
2023/03/02 15:10:45;;;;;;;34.90;20.08;;;;;;;12.84;47.03;96544.84;2071097;28;20204;-59
2023/03/02 15:11:47;;;;;;;34.17;19.05;;;;;;;12.85;46.69;96538.69;2072037;28;20622;-58
2023/03/02 15:12:48;;;;;;;35.10;20.63;;;;;;;11.87;47.70;96543.00;2072276;28;20210;-58
2023/03/02 15:13:50;;;;;;;44.30;22.17;;;;;;;11.74;48.16;96539.28;2070687;28;20204;-58
2023/03/02 15:14:51;;;;;;;28.85;18.27;;;;;;;11.55;48.69;96529.78;2069567;28;20315;-58
2023/03/02 15:15:53;;;;;;;39.90;21.73;;;;;;;11.43;49.27;96538.25;2070327;28;20197;-59
2023/03/02 15:16:54;;;;;;;36.70;20.98;;;;;;;11.37;49.40;96539.38;2069269;28;20691;-58
2023/03/02 15:17:56;;;;;;;40.35;21.65;;;;;;;11.37;49.31;96541.16;2072155;28;20201;-59
2023/03/02 15:18:57;;;;;;;34.45;19.88;;;;;;;11.32;49.54;96540.53;2070876;28;20196;-59
2023/03/02 15:19:59;;;;;;;37.42;19.15;;;;;;;11.51;48.83;96538.69;2073084;28;20200;-58
2023/03/02 15:21:00;;;;;;;35.97;18.80;;;;;;;11.17;49.59;96529.91;2072564;28;20203;-59
2023/03/02 15:22:03;;;;;;;30.75;19.33;;;;;;;11.59;49.53;96527.84;2071471;28;20571;-58
2023/03/02 15:23:05;;;;;;;40.88;22.35;;;;;;;11.90;48.55;96534.97;2071410;28;20238;-58
2023/03/02 15:24:06;;;;;;;34.95;19.92;;;;;;;11.73;48.90;96537.59;2072784;28;20553;-58
2023/03/02 15:25:08;;;;;;;35.80;20.05;;;;;;;11.84;48.85;96543.13;2071188;28;20241;-58
2023/03/02 15:26:11;;;;;;;37.85;20.58;;;;;;;12.27;48.25;96540.09;2068496;28;20198;-59
2023/03/02 15:27:12;;;;;;;44.13;24.95;;;;;;;12.13;48.02;96545.22;2069165;28;20206;-58
2023/03/02 15:28:14;;;;;;;39.70;22.15;;;;;;;11.57;48.90;96548.00;2066628;28;20665;-57
2023/03/02 15:29:16;;;;;;;52.60;29.05;;;;;;;11.51;49.26;96541.31;2066573;28;20251;-58
2023/03/02 15:30:18;;;;;;;43.00;23.33;;;;;;;11.26;49.60;96544.28;2073750;28;20246;-59
2023/03/02 15:31:20;;;;;;;43.15;20.60;;;;;;;11.17;49.67;96542.97;2071425;28;20270;-58
2023/03/02 15:32:21;;;;;;;41.90;20.95;;;;;;;11.07;49.83;96539.97;2071267;28;20201;-59
2023/03/02 15:33:23;;;;;;;35.38;20.33;;;;;;;11.11;49.76;96523.22;2072283;28;20636;-58
2023/03/02 15:34:24;;;;;;;41.80;22.25;;;;;;;11.18;49.82;96543.81;2072159;28;20206;-59
2023/03/02 15:35:28;;;;;;;35.92;20.77;;;;;;;10.84;50.54;96543.66;2071981;28;20206;-58
2023/03/02 15:36:29;;;;;;;35.78;21.90;;;;;;;11.09;50.27;96532.88;2074062;28;20226;-58
2023/03/02 15:37:31;;;;;;;38.15;21.10;;;;;;;11.07;50.54;96545.19;2073022;28;20615;-59
2023/03/02 15:38:34;;;;;;;35.17;21.50;;;;;;;11.25;50.26;96546.06;2071911;28;20225;-59
2023/03/02 15:39:36;;;;;;;38.00;21.45;;;;;;;11.27;50.10;96549.47;2065746;28;20699;-58
2023/03/02 15:40:37;;;;;;;39.88;20.90;;;;;;;11.30;49.75;96543.22;2063847;28;20621;-59
2023/03/02 15:41:41;;;;;;;38.50;20.00;;;;;;;11.25;49.84;96545.22;2071353;28;20255;-59
2023/03/02 15:42:42;;;;;;;33.28;18.60;;;;;;;11.04;50.14;96545.31;2072605;28;20817;-59
2023/03/02 15:43:49;;;;;;;39.88;21.23;;;;;;;11.64;49.38;96545.91;2071844;28;20287;-59
2023/03/02 15:44:50;;;;;;;40.63;20.95;;;;;;;11.76;49.19;96542.69;2072013;28;20230;-58
2023/03/02 15:45:52;;;;;;;39.47;20.02;;;;;;;11.92;48.76;96540.97;2074364;28;20210;-58
2023/03/02 15:46:56;;;;;;;36.22;22.17;;;;;;;11.88;48.63;96536.84;2070427;28;20229;-59
2023/03/02 15:47:58;;;;;;;37.83;22.10;;;;;;;11.83;48.91;96535.38;2072635;28;20252;-59
2023/03/02 15:48:59;;;;;;;36.08;21.20;;;;;;;12.06;48.44;96539.44;2071265;28;20700;-59
2023/03/02 15:50:01;;;;;;;37.05;20.90;;;;;;;12.20;48.66;96547.41;2071303;28;20194;-58
2023/03/02 15:51:06;;;;;;;38.92;20.80;;;;;;;12.31;48.21;96538.16;2072659;28;20248;-58
2023/03/02 15:52:10;;;;;;;34.33;19.33;;;;;;;12.61;47.62;96537.41;2070705;28;20665;-59
2023/03/02 15:53:11;;;;;;;40.95;19.90;;;;;;;12.54;47.43;96543.00;2067827;28;20664;-58
2023/03/02 15:54:13;;;;;;;32.45;18.83;;;;;;;12.50;47.45;96540.63;2067621;28;20233;-58
2023/03/02 15:55:14;;;;;;;35.90;18.80;;;;;;;12.59;47.42;96537.50;2067730;28;20201;-58
2023/03/02 15:56:16;;;;;;;32.92;19.48;;;;;;;12.41;47.44;96537.56;2068712;28;21144;-58
2023/03/02 15:57:17;;;;;;;34.28;17.83;;;;;;;12.46;47.02;96537.31;2072430;28;20561;-59
2023/03/02 15:58:20;;;;;;;38.70;19.00;;;;;;;12.46;47.39;96534.69;2072288;28;20209;-59
2023/03/02 15:59:27;;;;;;;35.78;19.58;;;;;;;12.38;47.27;96534.28;2073635;28;20203;-58
2023/03/02 16:00:28;;;;;;;41.72;19.35;;;;;;;12.46;47.41;96537.31;2072217;28;20236;-59
2023/03/02 16:01:30;;;;;;;36.13;19.45;;;;;;;12.35;47.93;96539.66;2069379;28;20221;-59
2023/03/02 16:02:31;;;;;;;31.30;19.40;;;;;;;12.50;47.50;96527.53;2071522;28;20644;-59
2023/03/02 16:03:33;;;;;;;34.22;18.83;;;;;;;12.77;47.11;96534.81;2074503;28;20206;-59
2023/03/02 16:04:34;;;;;;;30.02;17.52;;;;;;;12.46;47.30;96532.09;2072609;28;20204;-59
2023/03/02 16:05:36;;;;;;;28.15;16.58;;;;;;;12.32;47.95;96539.84;2071249;28;20330;-59
2023/03/02 16:06:37;;;;;;;34.85;19.08;;;;;;;12.44;47.34;96539.16;2072423;28;20346;-59
2023/03/02 16:07:39;;;;;;;30.85;17.33;;;;;;;11.98;48.35;96537.22;2072606;28;20201;-60
2023/03/02 16:08:40;;;;;;;30.23;18.05;;;;;;;11.96;48.49;96533.84;2075309;28;20324;-59
2023/03/02 16:09:44;;;;;;;32.10;17.83;;;;;;;12.03;48.74;96536.97;2073234;28;20202;-59
2023/03/02 16:10:57;;;;;;;38.08;18.55;;;;;;;11.96;48.51;96517.28;2070465;28;20204;-59
2023/03/02 16:11:59;;;;;;;31.83;17.67;;;;;;;12.06;48.43;96532.44;2073381;28;20647;-59
2023/03/02 16:13:03;;;;;;;33.92;17.60;;;;;;;11.97;48.56;96535.50;2071163;28;20572;-59
2023/03/02 16:14:04;;;;;;;32.90;18.55;;;;;;;11.84;49.07;96548.38;2072826;28;20705;-60
2023/03/02 16:15:07;;;;;;;35.15;19.23;;;;;;;11.83;48.91;96545.84;2073911;28;20204;-60
2023/03/02 16:16:08;;;;;;;36.28;19.17;;;;;;;11.88;48.86;96549.91;2069663;28;20192;-61
2023/03/02 16:17:10;;;;;;;40.38;19.25;;;;;;;11.73;48.77;96530.63;2070986;28;20262;-60
2023/03/02 16:18:13;;;;;;;31.40;17.23;;;;;;;11.90;48.35;96553.28;2071635;28;20252;-59
2023/03/02 16:19:16;;;;;;;30.42;19.05;;;;;;;11.81;48.96;96550.28;2071090;28;20212;-60
2023/03/02 16:20:19;;;;;;;41.58;19.65;;;;;;;11.29;49.23;96552.00;2072126;28;20209;-60
2023/03/02 16:21:22;;;;;;;37.95;20.00;;;;;;;11.34;49.83;96550.00;2066858;28;20234;-60
2023/03/02 16:22:23;;;;;;;37.53;20.33;;;;;;;11.27;49.63;96562.53;2072420;28;20232;-60
2023/03/02 16:23:25;;;;;;;33.05;19.10;;;;;;;11.21;49.55;96551.50;2074867;28;20197;-60
2023/03/02 16:24:26;;;;;;;42.38;21.40;;;;;;;11.18;50.02;96551.66;2073277;28;20559;-60
2023/03/02 16:25:28;;;;;;;33.85;18.15;;;;;;;11.14;50.45;96553.56;2072838;28;20645;-60
2023/03/02 16:26:32;;;;;;;30.67;18.55;;;;;;;11.03;50.78;96554.06;2071167;28;20225;-60
2023/03/02 16:27:33;;;;;;;38.53;18.88;;;;;;;11.00;50.68;96551.63;2072851;28;20205;-60
2023/03/02 16:28:35;;;;;;;36.85;19.25;;;;;;;10.44;51.55;96535.09;2073397;28;20189;-60
2023/03/02 16:29:37;;;;;;;32.65;18.83;;;;;;;10.32;51.55;96536.44;2071790;28;20289;-60
2023/03/02 16:30:40;;;;;;;38.85;19.08;;;;;;;10.58;51.65;96550.97;2070660;28;20233;-59
2023/03/02 16:31:45;;;;;;;37.28;20.08;;;;;;;10.17;51.91;96534.53;2069001;28;20235;-59
2023/03/02 16:32:46;;;;;;;39.40;19.42;;;;;;;10.34;52.12;96545.06;2068941;28;20237;-59
2023/03/02 16:33:49;;;;;;;35.75;19.42;;;;;;;10.21;52.48;96554.34;2072001;28;20216;-59
2023/03/02 16:34:53;;;;;;;37.03;19.60;;;;;;;10.11;52.75;96549.53;2071129;28;20203;-60
2023/03/02 16:35:55;;;;;;;36.35;19.40;;;;;;;9.95;53.07;96548.53;2071792;28;20281;-59
2023/03/02 16:36:56;;;;;;;32.88;18.60;;;;;;;9.83;53.07;96549.91;2071960;28;21024;-59
2023/03/02 16:37:58;;;;;;;45.67;18.65;;;;;;;9.93;53.02;96556.44;2072318;28;20206;-60
2023/03/02 16:39:00;;;;;;;39.90;17.25;;;;;;;10.02;53.30;96549.97;2075272;28;20200;-59
2023/03/02 16:40:01;;;;;;;34.15;18.38;;;;;;;9.76;53.56;96557.16;2071553;28;20583;-60
2023/03/02 16:41:04;;;;;;;38.00;20.23;;;;;;;9.62;53.84;96546.47;2074158;28;20720;-60
